In Rescue
 
Open Full Screen Window  High Contrast Mode
March 29, 2020 7:05 PM CDT
Weather Information
Wind Direction
  ---
Wind Speed
  00 kt (0 mph)
Wind Gust
  00 kt (0 mph)
Altimeter
29.88 in
Visibility
10 SM
Temperature
07° C
45° F
Dewpoint
-02° C
28° F
Humidity
53%
1hr Rain Fall
00.00 in.
24hr Rain Fall
00.02 in.
Sky Condition
Overcast @ 7,500 ft
VFR

METAR KTWM 300005Z AUTO 00000KT 10SM OVC075 07/M02 A2988 RMK AO2

FAA Disclaimer: The data displayed is for advisory purposes only and is not to be used for flight planning or operations.